Schedule Details


Flight Number: CTN367
Departure: Alexander The Great (LWSK) at 05:45
Arrival: Franjo Tudman (LDZA) at 07:05
Route: GOSTI P92 MAVAR UY400 RETRA UL604 BOSNA UL608 KOMAR L187 TEBLI

Weather Information
LWSK 251730Z 01008KT 9999 FEW050 32/12 Q1015 NOSIG
LDZA 251730Z 02005KT 360V060 9999 FEW038 26/19 Q1018 NOSIG
Schedule Frequency

Route Map